Time;durP1;ratioP1;P1;durP2;ratioP2;P2;SDS_P1;SDS_P2;PMS_P1;PMS_P2;Temp;Humidity;BMP_temperature;BMP_pressure;BME280_temperature;BME280_humidity;BME280_pressure;Samples;Min_cycle;Max_cycle;Signal;HPM_P1;HPM_P2
2022/04/26 03:38:16;;;;;;;13.80;9.53;;;6.00;99.90;;;;;;8219385;28;20192;-70
2022/04/26 03:42:17;;;;;;;12.50;9.40;;;6.00;99.90;;;;;;8220729;28;20184;-69
2022/04/26 03:46:18;;;;;;;11.23;8.73;;;6.00;99.90;;;;;;8215526;28;20240;-69
2022/04/26 03:50:18;;;;;;;12.43;9.33;;;6.00;99.90;;;;;;8210704;28;20217;-69
2022/04/26 03:54:21;;;;;;;10.53;8.23;;;6.00;99.90;;;;;;8214245;28;20263;-69
2022/04/26 03:58:21;;;;;;;12.33;9.70;;;6.00;99.90;;;;;;8212421;28;20684;-69
2022/04/26 04:02:23;;;;;;;11.40;9.07;;;6.00;99.90;;;;;;8230865;28;20282;-70
2022/04/26 04:06:24;;;;;;;15.53;10.90;;;6.00;99.90;;;;;;8226427;28;20186;-69
2022/04/26 04:10:24;;;;;;;21.27;16.60;;;6.00;99.90;;;;;;8214288;28;20204;-69
2022/04/26 04:14:25;;;;;;;15.77;11.63;;;6.00;99.90;;;;;;8213542;28;20184;-69
2022/04/26 04:22:48;;;;;;;13.27;10.43;;;6.00;99.90;;;;;;8215411;28;20219;-70
2022/04/26 04:26:49;;;;;;;16.30;10.90;;;6.00;99.90;;;;;;8231027;28;20199;-69
2022/04/26 04:30:49;;;;;;;15.53;10.83;;;6.00;99.90;;;;;;8217039;28;20274;-70
2022/04/26 04:34:50;;;;;;;16.50;12.03;;;6.00;99.90;;;;;;8217135;28;20651;-70
2022/04/26 04:38:51;;;;;;;18.03;10.97;;;6.00;99.90;;;;;;8230158;28;20221;-70
2022/04/26 04:42:51;;;;;;;13.73;10.20;;;6.10;99.90;;;;;;8226132;28;20220;-69
2022/04/26 04:46:54;;;;;;;14.17;9.67;;;6.20;99.90;;;;;;8239277;28;20192;-70
2022/04/26 04:50:55;;;;;;;16.70;11.17;;;6.30;99.90;;;;;;8242663;28;20212;-69
2022/04/26 04:54:56;;;;;;;15.37;10.77;;;6.40;99.90;;;;;;8221008;28;20274;-70
2022/04/26 04:58:57;;;;;;;13.13;9.23;;;6.60;99.90;;;;;;8238049;28;20316;-69
2022/04/26 05:02:58;;;;;;;12.93;10.20;;;6.70;99.90;;;;;;8225022;28;20216;-69
2022/04/26 05:06:59;;;;;;;11.93;9.33;;;6.80;99.90;;;;;;8236780;28;20192;-69
2022/04/26 05:11:00;;;;;;;15.33;10.07;;;7.00;99.90;;;;;;8218636;28;20212;-70
2022/04/26 05:15:02;;;;;;;12.93;8.90;;;7.10;99.90;;;;;;8237632;28;20191;-69
2022/04/26 05:19:03;;;;;;;13.87;9.83;;;7.10;99.90;;;;;;8220049;28;20239;-69
2022/04/26 05:27:28;;;;;;;12.00;8.30;;;7.40;99.90;;;;;;8222958;28;20251;-68
2022/04/26 05:31:29;;;;;;;15.77;9.97;;;7.50;99.90;;;;;;8220430;28;20212;-69
2022/04/26 05:35:30;;;;;;;12.53;8.80;;;7.50;99.90;;;;;;8221663;28;20177;-68
2022/04/26 05:39:31;;;;;;;11.40;8.50;;;7.60;99.90;;;;;;8210578;28;20321;-69
2022/04/26 05:43:33;;;;;;;12.27;7.93;;;7.80;99.90;;;;;;8232527;28;20332;-70
2022/04/26 05:47:33;;;;;;;12.17;8.50;;;7.90;99.90;;;;;;8215811;28;20328;-70
2022/04/26 05:51:34;;;;;;;11.03;8.47;;;7.90;99.90;;;;;;8217630;28;20252;-70
2022/04/26 05:55:35;;;;;;;11.80;8.10;;;8.10;99.90;;;;;;8230185;28;20189;-70
2022/04/26 05:59:36;;;;;;;11.40;7.60;;;8.30;99.90;;;;;;8211851;28;20187;-69
2022/04/26 06:03:37;;;;;;;11.47;7.47;;;8.40;99.90;;;;;;8231373;28;20195;-70
2022/04/26 06:07:38;;;;;;;9.73;8.00;;;8.30;99.90;;;;;;8232099;28;20185;-70
2022/04/26 06:11:39;;;;;;;10.90;7.03;;;8.40;99.90;;;;;;8223223;28;20228;-69
2022/04/26 06:15:40;;;;;;;12.43;7.53;;;8.50;99.90;;;;;;8212692;28;20312;-69
2022/04/26 06:19:40;;;;;;;11.87;8.90;;;8.70;99.90;;;;;;8235840;28;20201;-69
2022/04/26 06:23:42;;;;;;;11.80;7.83;;;8.90;99.90;;;;;;8233720;28;20203;-69
2022/04/26 06:27:42;;;;;;;17.30;10.80;;;9.10;99.90;;;;;;8233286;28;20200;-70
2022/04/26 06:31:43;;;;;;;14.17;9.73;;;9.40;99.90;;;;;;8227791;28;20215;-70
2022/04/26 06:35:44;;;;;;;16.63;9.97;;;9.60;1.00;;;;;;8232035;28;20260;-70
2022/04/26 06:39:45;;;;;;;12.03;8.13;;;9.70;99.90;;;;;;8216141;28;20202;-69
2022/04/26 06:43:46;;;;;;;11.50;8.20;;;10.10;99.90;;;;;;8216572;28;20210;-70
2022/04/26 06:47:49;;;;;;;10.03;7.37;;;10.40;1.00;;;;;;8214852;28;20238;-70
2022/04/26 06:51:50;;;;;;;9.33;6.50;;;10.60;17.80;;;;;;8227890;28;20219;-70
2022/04/26 06:55:51;;;;;;;11.50;8.20;;;10.90;1.00;;;;;;8229926;28;20262;-69
2022/04/26 06:59:51;;;;;;;12.00;10.00;;;11.20;99.90;;;;;;8216071;28;20185;-67
2022/04/26 07:03:52;;;;;;;9.03;7.40;;;11.30;1.00;;;;;;8214425;28;20185;-67
2022/04/26 07:07:53;;;;;;;10.33;7.13;;;11.30;1.00;;;;;;8211776;28;20188;-67
2022/04/26 07:11:54;;;;;;;14.90;6.80;;;11.30;99.90;;;;;;8230083;28;20989;-67
2022/04/26 07:15:55;;;;;;;7.30;6.20;;;11.50;1.00;;;;;;8215317;28;20188;-67
2022/04/26 07:19:58;;;;;;;8.80;6.30;;;11.70;99.90;;;;;;8229540;28;20220;-69
2022/04/26 07:23:58;;;;;;;9.57;6.03;;;11.80;1.00;;;;;;8227827;28;20522;-67
2022/04/26 07:27:59;;;;;;;8.87;6.27;;;12.00;99.90;;;;;;8231180;28;20212;-68
2022/04/26 07:32:00;;;;;;;6.73;5.20;;;11.50;52.90;;;;;;8218251;28;20255;-67
2022/04/26 07:36:03;;;;;;;7.10;5.00;;;11.50;1.00;;;;;;8211388;28;20235;-67
2022/04/26 07:40:04;;;;;;;7.27;4.80;;;11.40;1.00;;;;;;8207683;28;20232;-68
2022/04/26 07:44:05;;;;;;;5.33;4.10;;;11.40;1.00;;;;;;8212137;28;20369;-68
2022/04/26 07:48:07;;;;;;;7.13;4.50;;;11.20;70.10;;;;;;8209637;28;20330;-67
2022/04/26 07:52:07;;;;;;;5.17;4.07;;;11.60;97.10;;;;;;8209697;28;20215;-67
2022/04/26 07:56:09;;;;;;;5.17;3.80;;;11.70;86.10;;;;;;8206280;28;20519;-67
2022/04/26 08:00:11;;;;;;;5.13;3.87;;;11.90;1.00;;;;;;8226814;28;20189;-69
2022/04/26 08:04:11;;;;;;;5.27;4.00;;;11.90;35.50;;;;;;8207248;28;20189;-67
2022/04/26 08:08:12;;;;;;;6.90;4.57;;;12.60;1.00;;;;;;8216960;28;20424;-68
2022/04/26 08:12:13;;;;;;;6.87;4.60;;;13.10;99.90;;;;;;8213644;28;20216;-68
2022/04/26 08:16:14;;;;;;;7.63;5.23;;;13.00;1.00;;;;;;8235074;28;20268;-68
2022/04/26 08:20:16;;;;;;;8.13;4.93;;;12.80;1.00;;;;;;8226532;28;20196;-68
2022/04/26 08:28:36;;;;;;;5.80;4.00;;;12.90;1.00;;;;;;8230630;28;20282;-68
2022/04/26 08:32:39;;;;;;;6.60;4.60;;;13.50;99.90;;;;;;8223881;28;20204;-67
2022/04/26 08:36:40;;;;;;;5.03;4.03;;;14.20;99.90;;;;;;8220148;28;20219;-68
2022/04/26 08:40:44;;;;;;;5.63;3.50;;;14.60;99.90;;;;;;8235965;28;20247;-68
2022/04/26 08:44:45;;;;;;;6.17;4.90;;;14.80;99.90;;;;;;8218718;28;20220;-68
2022/04/26 08:53:06;;;;;;;5.97;4.60;;;15.30;99.90;;;;;;8218008;28;20219;-68
2022/04/26 08:57:08;;;;;;;4.97;3.13;;;14.10;1.00;;;;;;8229777;28;20298;-68
2022/04/26 09:01:22;;;;;;;3.40;2.90;;;14.30;99.90;;;;;;8229111;28;20872;-68
2022/04/26 09:05:23;;;;;;;4.60;3.17;;;14.70;99.90;;;;;;8231195;28;20283;-68
2022/04/26 09:09:24;;;;;;;4.70;3.50;;;14.80;1.00;;;;;;8235130;28;20192;-68
2022/04/26 09:13:25;;;;;;;4.20;3.73;;;14.50;1.00;;;;;;8222858;28;20218;-68
2022/04/26 09:17:25;;;;;;;5.73;3.33;;;14.40;1.00;;;;;;8236561;28;20188;-67
2022/04/26 09:21:28;;;;;;;5.70;3.57;;;14.50;1.00;;;;;;8238708;28;20185;-68
2022/04/26 09:25:29;;;;;;;7.27;4.77;;;14.80;1.00;;;;;;8228277;28;20192;-67
2022/04/26 09:29:29;;;;;;;3.27;2.97;;;15.00;99.90;;;;;;8235685;28;20207;-67
2022/04/26 09:33:38;;;;;;;6.53;3.80;;;15.40;99.90;;;;;;8221108;28;20216;-67
2022/04/26 09:37:45;;;;;;;3.80;2.60;;;15.80;99.90;;;;;;8216210;28;20224;-68
2022/04/26 09:41:52;;;;;;;4.00;3.30;;;16.10;99.90;;;;;;8230680;28;20228;-67
2022/04/26 09:45:56;;;;;;;4.63;3.40;;;16.30;81.10;;;;;;8222743;28;20184;-68
2022/04/26 09:50:03;;;;;;;4.97;4.00;;;16.20;99.90;;;;;;8214473;28;20184;-68
2022/04/26 09:54:05;;;;;;;7.90;5.17;;;15.80;99.90;;;;;;8206074;28;20225;-68
2022/04/26 09:58:06;;;;;;;5.13;3.97;;;15.80;99.90;;;;;;8220100;28;20319;-67
2022/04/26 10:02:13;;;;;;;6.27;4.03;;;16.10;99.90;;;;;;8208887;28;20286;-68
2022/04/26 10:06:16;;;;;;;4.17;3.47;;;16.40;98.00;;;;;;8222838;28;20292;-68
2022/04/26 10:10:20;;;;;;;5.80;3.53;;;16.70;40.10;;;;;;8212593;28;20208;-67
2022/04/26 10:14:22;;;;;;;3.63;3.10;;;17.30;1.00;;;;;;8218100;28;20208;-68
2022/04/26 10:18:30;;;;;;;3.27;2.80;;;17.00;1.00;;;;;;8236861;28;20185;-68
2022/04/26 10:23:06;;;;;;;3.77;3.10;;;16.80;1.00;;;;;;8231419;28;20255;-68
2022/04/26 10:27:33;;;;;;;5.90;3.47;;;15.60;99.90;;;;;;8119022;28;20204;-67
2022/04/26 10:31:39;;;;;;;4.00;3.23;;;15.30;99.90;;;;;;8209034;28;20248;-67
2022/04/26 10:35:40;;;;;;;4.80;2.90;;;15.60;99.90;;;;;;8219159;28;20189;-68
2022/04/26 10:39:42;;;;;;;3.47;3.00;;;15.50;99.90;;;;;;8218375;28;20299;-68
2022/04/26 10:44:21;;;;;;;5.43;3.40;;;15.90;99.90;;;;;;8231052;28;20223;-67
2022/04/26 10:48:25;;;;;;;3.67;3.20;;;16.20;94.10;;;;;;8219777;28;20177;-68
2022/04/26 10:52:33;;;;;;;2.97;2.60;;;16.60;1.00;;;;;;8219480;28;20530;-68
2022/04/26 10:56:35;;;;;;;4.73;2.97;;;16.20;35.70;;;;;;8225766;28;20177;-68
2022/04/26 11:00:37;;;;;;;3.83;3.17;;;16.60;1.00;;;;;;8229184;28;20196;-68
2022/04/26 11:04:38;;;;;;;3.60;2.57;;;16.60;1.00;;;;;;8228985;28;20197;-68
2022/04/26 11:08:40;;;;;;;4.73;3.07;;;16.70;1.00;;;;;;8233866;28;20335;-67
2022/04/26 11:12:43;;;;;;;3.27;2.67;;;17.20;1.00;;;;;;8233301;28;20239;-67
2022/04/26 11:17:02;;;;;;;3.60;2.50;;;17.70;99.90;;;;;;8214147;28;20188;-68
2022/04/26 11:21:04;;;;;;;3.53;2.60;;;18.30;1.00;;;;;;8213576;28;20232;-68
2022/04/26 11:29:31;;;;;;;3.27;2.47;;;18.80;99.90;;;;;;8210267;28;20391;-68
2022/04/26 11:33:32;;;;;;;3.33;2.30;;;18.90;99.90;;;;;;8229601;28;20212;-69
2022/04/26 11:37:46;;;;;;;3.23;2.70;;;19.30;99.90;;;;;;8226578;28;20181;-68
2022/04/26 11:41:47;;;;;;;7.47;2.40;;;19.40;99.90;;;;;;8216740;28;20212;-69
2022/04/26 11:45:53;;;;;;;3.03;2.37;;;19.30;99.90;;;;;;8229716;28;20188;-69
2022/04/26 11:49:55;;;;;;;3.47;2.27;;;19.60;99.90;;;;;;8212943;28;20188;-69
2022/04/26 11:53:56;;;;;;;3.20;2.30;;;19.70;99.90;;;;;;8230759;28;20259;-69
2022/04/26 11:58:16;;;;;;;2.70;2.40;;;19.10;99.90;;;;;;8215093;28;20264;-69
2022/04/26 12:02:17;;;;;;;2.57;2.37;;;18.00;99.90;;;;;;8218842;28;20579;-68
2022/04/26 12:06:36;;;;;;;2.97;2.53;;;18.20;99.90;;;;;;8217842;28;20234;-69
2022/04/26 12:10:37;;;;;;;2.43;2.23;;;18.60;99.90;;;;;;8234812;28;20204;-69
2022/04/26 12:14:41;;;;;;;3.03;2.40;;;18.80;99.90;;;;;;8224606;28;20180;-69
2022/04/26 12:18:56;;;;;;;2.87;2.57;;;18.40;99.90;;;;;;8228991;28;20231;-69
2022/04/26 12:22:57;;;;;;;3.10;2.63;;;18.30;99.90;;;;;;8214325;28;20260;-68
2022/04/26 12:27:26;;;;;;;4.57;3.00;;;18.40;99.90;;;;;;8217507;28;20184;-69
2022/04/26 12:31:29;;;;;;;3.20;2.13;;;18.50;99.90;;;;;;8210530;28;20220;-69
2022/04/26 12:35:31;;;;;;;2.50;1.97;;;18.60;99.90;;;;;;8230535;28;20195;-69
2022/04/26 12:39:41;;;;;;;2.17;1.97;;;18.80;99.90;;;;;;8213552;28;20295;-67
2022/04/26 12:43:43;;;;;;;2.30;2.03;;;19.00;99.90;;;;;;8231491;28;20189;-64
2022/04/26 12:52:32;;;;;;;3.00;2.20;;;19.30;99.90;;;;;;8213740;28;20228;-65
2022/04/26 12:56:33;;;;;;;2.77;2.23;;;19.50;99.90;;;;;;8234227;28;20207;-63
2022/04/26 13:00:43;;;;;;;2.57;2.00;;;19.20;99.90;;;;;;8231003;28;20199;-65
2022/04/26 13:04:44;;;;;;;2.33;2.13;;;19.10;99.90;;;;;;8221004;28;20203;-66
2022/04/26 13:08:49;;;;;;;2.53;2.20;;;19.20;99.90;;;;;;8221418;28;20280;-65
2022/04/26 13:12:49;;;;;;;3.37;2.30;;;19.40;99.90;;;;;;8235443;28;20236;-64
2022/04/26 13:16:50;;;;;;;2.80;2.40;;;19.40;99.90;;;;;;8223232;28;20185;-67
2022/04/26 13:20:54;;;;;;;2.80;2.30;;;19.20;99.90;;;;;;8233501;28;20219;-68
2022/04/26 13:24:55;;;;;;;2.20;2.00;;;18.80;99.90;;;;;;8235273;28;20258;-64
2022/04/26 13:28:56;;;;;;;3.87;2.97;;;18.90;99.90;;;;;;8226916;28;20203;-67
2022/04/26 13:32:56;;;;;;;2.83;2.20;;;18.90;99.90;;;;;;8221140;28;20239;-64
2022/04/26 13:36:57;;;;;;;5.07;2.50;;;18.90;99.90;;;;;;8223734;28;20192;-64
2022/04/26 13:41:00;;;;;;;2.70;2.50;;;18.80;99.90;;;;;;8222284;28;20273;-64
2022/04/26 13:45:01;;;;;;;10.60;6.77;;;18.60;99.90;;;;;;8221330;28;20275;-65
2022/04/26 13:49:03;;;;;;;3.83;2.80;;;18.50;99.90;;;;;;8224030;28;20197;-67
2022/04/26 13:53:04;;;;;;;2.73;2.43;;;18.10;99.90;;;;;;8221936;28;20676;-66
2022/04/26 13:57:05;;;;;;;5.63;2.33;;;18.00;99.90;;;;;;8218625;28;20188;-66
2022/04/26 14:01:06;;;;;;;4.47;2.60;;;18.00;99.90;;;;;;8217088;28;20227;-63
2022/04/26 14:05:07;;;;;;;2.60;2.40;;;18.30;99.90;;;;;;8224815;28;20189;-64
2022/04/26 14:09:08;;;;;;;2.53;2.20;;;18.90;99.90;;;;;;8218216;28;20267;-61
2022/04/26 14:13:09;;;;;;;3.37;2.60;;;19.20;99.90;;;;;;8219650;28;20244;-61
2022/04/26 14:21:48;;;;;;;2.87;2.30;;;18.30;99.90;;;;;;8216877;28;20204;-62
2022/04/26 14:25:50;;;;;;;2.30;1.90;;;17.80;99.90;;;;;;8214738;28;20201;-62
2022/04/26 14:29:51;;;;;;;2.50;2.13;;;17.60;99.90;;;;;;8231299;28;20204;-61
2022/04/26 14:33:52;;;;;;;3.83;2.30;;;17.40;99.90;;;;;;8214537;28;20336;-63
2022/04/26 14:37:53;;;;;;;3.20;2.20;;;17.30;99.90;;;;;;8211611;28;20185;-61
2022/04/26 14:41:54;;;;;;;3.57;2.40;;;17.10;99.90;;;;;;8231502;28;20212;-62
2022/04/26 14:45:55;;;;;;;3.20;2.37;;;17.00;99.90;;;;;;8232066;28;20810;-61
2022/04/26 14:49:59;;;;;;;2.33;1.90;;;16.90;99.90;;;;;;8237844;28;20196;-63
2022/04/26 14:54:00;;;;;;;2.43;2.20;;;16.70;99.90;;;;;;8216252;28;20203;-61
2022/04/26 14:58:01;;;;;;;2.83;2.30;;;16.60;99.90;;;;;;8232138;28;20208;-62
2022/04/26 15:02:02;;;;;;;3.67;2.00;;;16.50;99.90;;;;;;8216065;28;20238;-60
2022/04/26 15:06:03;;;;;;;3.10;2.50;;;16.60;99.90;;;;;;8215030;28;20422;-63
2022/04/26 15:10:05;;;;;;;5.70;3.40;;;16.60;99.90;;;;;;8229681;28;20200;-63
2022/04/26 15:18:24;;;;;;;2.30;2.10;;;16.50;99.90;;;;;;8218453;28;20243;-63
2022/04/26 15:22:26;;;;;;;2.57;2.17;;;16.60;99.90;;;;;;8234372;28;20279;-62
2022/04/26 15:26:27;;;;;;;2.40;2.20;;;16.80;99.90;;;;;;8230212;28;20258;-61
2022/04/26 15:30:28;;;;;;;4.03;3.03;;;16.80;99.90;;;;;;8218691;28;20303;-65
2022/04/26 15:34:29;;;;;;;4.53;2.70;;;16.70;99.90;;;;;;8213209;28;20195;-62
2022/04/26 15:38:31;;;;;;;7.43;4.33;;;16.60;99.90;;;;;;8233600;28;20196;-61
2022/04/26 15:42:32;;;;;;;33.77;19.17;;;16.70;99.90;;;;;;8231021;28;20203;-63
2022/04/26 15:46:33;;;;;;;17.03;11.80;;;16.60;99.90;;;;;;8231685;28;20192;-64
2022/04/26 15:50:34;;;;;;;10.93;7.27;;;16.40;99.90;;;;;;8214745;28;20227;-63
2022/04/26 15:54:36;;;;;;;10.70;6.37;;;16.30;99.90;;;;;;8230308;28;20275;-63
2022/04/26 15:58:36;;;;;;;17.37;13.23;;;16.30;99.90;;;;;;8230215;28;20188;-61
2022/04/26 16:02:39;;;;;;;7.33;6.53;;;16.10;99.90;;;;;;8213847;28;20759;-61
2022/04/26 16:06:44;;;;;;;3.13;2.60;;;16.10;99.90;;;;;;8227940;28;20197;-60
2022/04/26 16:23:44;;;;;;;9.87;6.70;;;15.90;1.00;;;;;;8212403;28;20243;-62
2022/04/26 16:27:48;;;;;;;3.70;2.63;;;16.00;1.00;;;;;;8224926;28;20196;-63
2022/04/26 16:31:49;;;;;;;4.47;3.53;;;16.00;1.00;;;;;;8220670;28;20286;-63
2022/04/26 16:35:51;;;;;;;7.13;5.67;;;16.10;1.00;;;;;;8216568;28;20180;-63
2022/04/26 16:39:52;;;;;;;3.97;2.87;;;16.00;99.90;;;;;;8218187;28;20204;-65
2022/04/26 16:43:53;;;;;;;4.30;2.27;;;15.80;99.90;;;;;;8220917;28;20215;-65
2022/04/26 16:47:54;;;;;;;4.43;2.70;;;15.60;1.00;;;;;;8213606;28;20193;-62
2022/04/26 16:51:54;;;;;;;5.00;3.60;;;15.30;1.00;;;;;;8234650;28;20446;-62
2022/04/26 16:55:56;;;;;;;6.27;4.07;;;15.10;1.00;;;;;;8233028;28;20195;-64
2022/04/26 16:59:58;;;;;;;2.60;2.30;;;14.90;6.10;;;;;;8232462;28;20189;-65
2022/04/26 17:04:00;;;;;;;4.07;2.30;;;14.80;99.90;;;;;;8239106;28;20287;-63
2022/04/26 17:08:02;;;;;;;3.33;2.63;;;14.60;99.90;;;;;;8217648;28;20197;-64
2022/04/26 17:12:03;;;;;;;5.73;3.00;;;14.60;99.90;;;;;;8236478;28;20228;-64
2022/04/26 17:16:04;;;;;;;4.93;2.70;;;14.60;99.90;;;;;;8215513;28;20660;-62
2022/04/26 17:20:07;;;;;;;3.00;2.00;;;14.60;99.90;;;;;;8234095;28;20193;-62
2022/04/26 17:28:27;;;;;;;3.00;2.57;;;14.40;1.00;;;;;;8220385;28;20661;-62
2022/04/26 17:32:28;;;;;;;3.07;2.60;;;14.30;1.00;;;;;;8215564;28;20239;-62
2022/04/26 17:36:30;;;;;;;3.23;2.47;;;14.10;22.80;;;;;;8236505;28;20576;-63
2022/04/26 17:40:31;;;;;;;2.50;2.30;;;14.10;99.90;;;;;;8220466;28;20243;-62
2022/04/26 17:44:33;;;;;;;3.03;2.73;;;13.90;99.90;;;;;;8217024;28;20366;-65
2022/04/26 17:48:34;;;;;;;4.93;3.50;;;13.80;99.90;;;;;;8220933;28;20200;-67
2022/04/26 17:56:28;;;;;;;4.57;3.83;;;13.60;99.90;;;;;;8235301;28;20219;-66
2022/04/26 17:56:56;;;;;;;4.57;3.77;;;13.40;99.90;;;;;;8219056;28;20243;-66
2022/04/26 18:00:58;;;;;;;5.57;4.27;;;13.20;99.90;;;;;;8217543;28;20192;-63
2022/04/26 18:04:59;;;;;;;6.33;4.70;;;12.90;99.90;;;;;;8218379;28;20212;-62
2022/04/26 18:09:00;;;;;;;7.90;5.57;;;12.70;1.00;;;;;;8217005;28;20740;-65
2022/04/26 18:13:00;;;;;;;7.77;5.60;;;12.40;99.90;;;;;;8214386;28;20212;-64
2022/04/26 18:17:02;;;;;;;6.30;4.60;;;12.10;1.00;;;;;;8229304;28;20546;-64
2022/04/26 18:21:03;;;;;;;5.83;3.80;;;11.80;1.00;;;;;;8217091;28;20251;-63
2022/04/26 18:25:04;;;;;;;3.77;3.37;;;11.50;99.90;;;;;;8215956;28;20196;-65
2022/04/26 18:29:05;;;;;;;4.63;3.87;;;11.20;1.00;;;;;;8219064;28;20260;-64
2022/04/26 18:33:06;;;;;;;4.27;3.50;;;11.00;99.90;;;;;;8234075;28;20212;-67
2022/04/26 18:37:06;;;;;;;9.13;5.43;;;10.80;99.90;;;;;;8220416;28;20274;-65
2022/04/26 18:41:08;;;;;;;7.23;4.80;;;10.50;91.80;;;;;;8235792;28;20277;-67
2022/04/26 18:45:10;;;;;;;5.03;4.10;;;10.10;99.90;;;;;;8217566;28;20224;-67
2022/04/26 18:49:14;;;;;;;4.63;3.80;;;9.90;99.90;;;;;;8235262;28;20193;-67
2022/04/26 18:53:14;;;;;;;5.13;3.93;;;9.70;99.90;;;;;;8235382;28;20210;-67
2022/04/26 18:57:17;;;;;;;5.93;4.33;;;9.50;99.90;;;;;;8221608;28;20266;-65
2022/04/26 19:01:18;;;;;;;7.23;4.80;;;9.40;99.90;;;;;;8215413;28;20224;-66
2022/04/26 19:05:20;;;;;;;7.03;4.50;;;9.30;99.90;;;;;;8214331;28;20184;-67
2022/04/26 19:09:23;;;;;;;6.87;4.50;;;9.20;99.90;;;;;;8232991;28;20251;-67
2022/04/26 19:13:23;;;;;;;6.07;4.40;;;9.00;1.00;;;;;;8219098;28;20311;-65
2022/04/26 19:17:25;;;;;;;8.27;4.47;;;8.80;1.00;;;;;;8216771;28;20192;-67
2022/04/26 19:21:25;;;;;;;6.03;4.37;;;8.60;1.00;;;;;;8231027;28;20578;-66
2022/04/26 19:25:26;;;;;;;5.77;3.83;;;8.40;1.00;;;;;;8211638;28;20227;-67
2022/04/26 19:29:27;;;;;;;5.33;3.97;;;8.10;6.50;;;;;;8232127;28;20211;-66
2022/04/26 19:33:28;;;;;;;6.47;4.00;;;7.90;99.90;;;;;;8232306;28;20295;-67
2022/04/26 19:37:29;;;;;;;6.60;4.30;;;7.80;99.90;;;;;;8218698;28;20193;-68
2022/04/26 19:41:29;;;;;;;5.97;4.50;;;7.70;99.90;;;;;;8235556;28;20295;-67
2022/04/26 19:45:32;;;;;;;5.13;4.10;;;7.50;99.90;;;;;;8221545;28;20224;-67
2022/04/26 19:49:33;;;;;;;5.63;4.40;;;7.40;99.90;;;;;;8236660;28;20197;-66
2022/04/26 19:53:34;;;;;;;6.40;4.33;;;7.40;99.90;;;;;;8217142;28;20247;-66
2022/04/26 19:57:35;;;;;;;5.33;4.37;;;7.30;99.90;;;;;;8216609;28;20192;-67
2022/04/26 20:01:37;;;;;;;7.80;5.10;;;7.20;99.90;;;;;;8218736;28;20220;-66
2022/04/26 20:05:37;;;;;;;7.73;5.40;;;7.10;99.90;;;;;;8235186;28;20195;-66
2022/04/26 20:09:38;;;;;;;7.37;5.53;;;7.00;99.90;;;;;;8218422;28;20192;-66
2022/04/26 20:13:39;;;;;;;8.60;6.00;;;6.90;99.90;;;;;;8218869;28;20225;-65
2022/04/26 20:17:40;;;;;;;10.80;7.47;;;6.80;99.90;;;;;;8214964;28;20193;-66
2022/04/26 20:21:41;;;;;;;10.30;7.03;;;6.70;99.90;;;;;;8233502;28;20196;-67
2022/04/26 20:30:01;;;;;;;6.73;5.07;;;6.60;99.90;;;;;;8221261;28;20211;-66
2022/04/26 20:34:02;;;;;;;8.40;5.60;;;6.60;99.90;;;;;;8236973;28;20216;-67
2022/04/26 20:38:04;;;;;;;7.37;5.53;;;6.60;99.90;;;;;;8236451;28;20192;-65
2022/04/26 20:42:05;;;;;;;7.37;5.70;;;6.70;99.90;;;;;;8231131;28;20263;-66
2022/04/26 20:46:08;;;;;;;5.60;4.50;;;6.70;99.90;;;;;;8216613;28;20215;-65
2022/04/26 20:50:09;;;;;;;6.97;5.17;;;6.70;99.90;;;;;;8235364;28;20192;-65
2022/04/26 20:54:10;;;;;;;5.90;4.73;;;6.60;99.90;;;;;;8217260;28;20217;-66
2022/04/26 20:58:11;;;;;;;7.37;5.10;;;6.60;99.90;;;;;;8235100;28;20274;-65
2022/04/26 21:02:12;;;;;;;6.20;5.00;;;6.50;99.90;;;;;;8218266;28;20201;-67
2022/04/26 21:06:12;;;;;;;6.97;5.70;;;6.50;99.90;;;;;;8231103;28;20225;-66
2022/04/26 21:10:14;;;;;;;5.97;4.93;;;6.50;99.90;;;;;;8232374;28;20196;-65
2022/04/26 21:14:15;;;;;;;6.17;5.07;;;6.50;99.90;;;;;;8236415;28;20188;-67
2022/04/26 21:18:16;;;;;;;6.37;5.07;;;6.50;99.90;;;;;;8215825;28;20271;-66
2022/04/26 21:22:17;;;;;;;5.97;4.57;;;6.50;99.90;;;;;;8221288;28;20254;-66
2022/04/26 21:26:17;;;;;;;5.90;4.90;;;6.50;99.90;;;;;;8222083;28;20247;-66
2022/04/26 21:30:18;;;;;;;7.13;5.30;;;6.50;99.90;;;;;;8224012;28;20200;-65
2022/04/26 21:34:19;;;;;;;7.17;5.40;;;6.50;99.90;;;;;;8225324;28;20196;-66
2022/04/26 21:38:20;;;;;;;6.53;5.27;;;6.60;99.90;;;;;;8241068;28;20214;-66
2022/04/26 21:42:21;;;;;;;6.20;5.33;;;6.50;99.90;;;;;;8223253;28;20189;-66
2022/04/26 21:46:22;;;;;;;6.43;5.10;;;6.60;99.90;;;;;;8239458;28;20201;-65
2022/04/26 21:54:43;;;;;;;6.97;5.43;;;6.60;99.90;;;;;;8224795;28;20336;-65
2022/04/26 21:58:44;;;;;;;6.00;5.00;;;6.60;99.90;;;;;;8225231;28;20185;-66
2022/04/26 22:02:45;;;;;;;7.60;5.60;;;6.60;99.90;;;;;;8224017;28;20200;-66
2022/04/26 22:06:46;;;;;;;6.63;5.17;;;6.60;99.90;;;;;;8241071;28;20203;-66
2022/04/26 22:10:47;;;;;;;7.33;5.83;;;6.60;99.90;;;;;;8236841;28;20505;-66
2022/04/26 22:14:47;;;;;;;7.60;5.57;;;6.60;99.90;;;;;;8223235;28;20184;-66
2022/04/26 22:18:51;;;;;;;8.47;6.10;;;6.70;99.90;;;;;;8242406;28;20212;-66
2022/04/26 22:22:52;;;;;;;7.40;6.20;;;6.70;99.90;;;;;;8225888;28;20243;-66
2022/04/26 22:26:53;;;;;;;11.60;7.87;;;6.60;99.90;;;;;;8220349;28;20192;-66
2022/04/26 22:30:54;;;;;;;11.80;7.30;;;6.60;99.90;;;;;;8235023;28;20220;-65
2022/04/26 22:34:55;;;;;;;9.13;7.00;;;6.60;99.90;;;;;;8238402;28;20199;-67
2022/04/26 22:38:56;;;;;;;9.03;6.73;;;6.50;99.90;;;;;;8223753;28;20614;-66
2022/04/26 22:42:56;;;;;;;9.60;7.07;;;6.50;99.90;;;;;;8236214;28;20337;-66
2022/04/26 22:46:57;;;;;;;8.80;6.77;;;6.50;99.90;;;;;;8236178;28;20189;-66
2022/04/26 22:50:58;;;;;;;8.17;6.33;;;6.40;99.90;;;;;;8221898;28;20223;-65
2022/04/26 22:54:59;;;;;;;10.10;7.47;;;6.30;99.90;;;;;;8220828;28;20224;-65
2022/04/26 22:58:59;;;;;;;9.87;6.90;;;6.20;99.90;;;;;;8236321;28;20189;-66
2022/04/26 23:03:00;;;;;;;8.27;6.90;;;6.10;99.90;;;;;;8221682;28;20218;-66
2022/04/26 23:07:01;;;;;;;8.50;6.43;;;6.00;99.90;;;;;;8238985;28;20602;-66
2022/04/26 23:11:02;;;;;;;9.83;6.43;;;5.90;99.90;;;;;;8224500;28;20208;-66
2022/04/26 23:15:04;;;;;;;9.23;7.13;;;5.80;99.90;;;;;;8226727;28;20247;-66
2022/04/26 23:19:05;;;;;;;9.87;6.73;;;5.70;99.90;;;;;;8245697;28;20201;-66
2022/04/26 23:23:06;;;;;;;8.13;6.00;;;5.60;99.90;;;;;;8239318;28;20201;-66
2022/04/26 23:27:07;;;;;;;7.27;5.87;;;5.60;99.90;;;;;;8234438;28;20192;-65
2022/04/26 23:31:09;;;;;;;7.43;5.73;;;5.50;99.90;;;;;;8238111;28;20522;-66
2022/04/26 23:39:29;;;;;;;8.47;5.67;;;5.20;99.90;;;;;;8225096;28;20216;-65
2022/04/26 23:43:30;;;;;;;9.13;7.00;;;5.10;99.90;;;;;;8219227;28;20192;-67
2022/04/26 23:47:32;;;;;;;8.77;6.60;;;4.90;99.90;;;;;;8220384;28;20200;-66
2022/04/26 23:55:52;;;;;;;9.47;6.47;;;4.70;99.90;;;;;;8219560;28;20266;-66
2022/04/26 23:59:52;;;;;;;8.60;5.87;;;4.60;99.90;;;;;;8225276;28;20193;-66
